createdAt,value
2018-09-25T00:55:42.031Z,24.9
2018-09-25T00:56:30.981Z,24.9
2018-09-25T00:57:21.831Z,24.9
2018-09-25T00:58:11.643Z,24.9
2018-09-25T00:59:01.689Z,24.9
2018-09-25T00:59:51.182Z,24.9
2018-09-25T01:00:41.873Z,24.9
2018-09-25T01:01:31.867Z,24.9
2018-09-25T01:02:22.230Z,24.9
2018-09-25T01:03:11.778Z,24.9
2018-09-25T01:04:02.083Z,24.9
2018-09-25T01:04:52.432Z,24.9
2018-09-25T01:05:41.903Z,24.9
2018-09-25T01:06:32.054Z,24.9
2018-09-25T01:07:22.022Z,24.9
2018-09-25T01:08:12.045Z,24.9
2018-09-25T01:09:02.429Z,24.9
2018-09-25T01:09:52.171Z,24.9
2018-09-25T01:10:42.275Z,24.9
2018-09-25T01:11:32.952Z,24.9
2018-09-25T01:12:22.673Z,24.9
2018-09-25T01:13:12.728Z,24.9
2018-09-25T01:14:02.517Z,24.9
2018-09-25T01:14:52.637Z,24.9
2018-09-25T01:15:42.943Z,24.9
2018-09-25T01:16:32.983Z,24.9
2018-09-25T01:17:23.327Z,24.9
2018-09-25T01:18:12.529Z,24.9
2018-09-25T01:19:03.826Z,24.9
2018-09-25T01:19:53.232Z,24.9
2018-09-25T01:21:32.793Z,24.9
2018-09-25T01:22:22.867Z,24.9
2018-09-25T01:23:13.446Z,24.9
2018-09-25T01:24:03.544Z,24.9
2018-09-25T01:24:53.384Z,24.9
2018-09-25T01:25:43.946Z,24.9
2018-09-25T01:26:33.714Z,24.9
2018-09-25T01:27:23.543Z,24.9
2018-09-25T01:28:13.016Z,24.9
2018-09-25T01:29:03.659Z,24.9
2018-09-25T01:29:54.007Z,24.9
2018-09-25T01:30:43.512Z,24.9
2018-09-25T01:31:34.121Z,24.9
2018-09-25T01:32:24.231Z,24.9
2018-09-25T01:33:13.988Z,24.9
2018-09-25T01:34:04.295Z,24.9
2018-09-25T01:34:53.865Z,24.9
2018-09-25T01:35:44.691Z,24.9
2018-09-25T01:36:34.449Z,24.9
2018-09-25T01:37:23.923Z,24.9
2018-09-25T01:38:15.185Z,24.9
2018-09-25T01:39:04.663Z,24.9
2018-09-25T01:39:55.235Z,24.9
2018-09-25T01:40:44.535Z,24.9
2018-09-25T01:41:34.553Z,24.9
2018-09-25T01:42:24.902Z,24.9
2018-09-25T01:43:14.728Z,24.9
2018-09-25T01:44:04.740Z,24.9
2018-09-25T01:44:54.520Z,24.9
2018-09-25T01:45:45.155Z,24.9
2018-09-25T01:46:35.268Z,24.9
2018-09-25T01:47:25.051Z,24.9
2018-09-25T01:48:15.915Z,24.9
2018-09-25T01:49:05.450Z,24.9
2018-09-25T01:49:55.827Z,24.9
2018-09-25T01:50:45.255Z,24.9
2018-09-25T01:51:35.594Z,24.9
2018-09-25T01:52:25.687Z,24.9
2018-09-25T01:53:15.485Z,24.9
2018-09-25T01:54:05.757Z,24.9
2018-09-25T01:54:55.932Z,24.9
2018-09-25T01:55:46.245Z,24.9
2018-09-25T01:56:35.986Z,24.9
2018-09-25T01:57:26.337Z,24.9
2018-09-25T01:58:15.802Z,24.9
2018-09-25T01:59:06.140Z,24.9
2018-09-25T01:59:55.926Z,24.9
2018-09-25T02:00:46.001Z,24.9
2018-09-25T02:01:36.337Z,24.9
2018-09-25T02:02:26.744Z,24.9
2018-09-25T02:03:16.793Z,24.9
2018-09-25T02:04:06.539Z,24.9
2018-09-25T02:04:56.324Z,24.9
2018-09-25T02:05:46.504Z,24.9
2018-09-25T02:06:36.739Z,24.9
2018-09-25T02:07:26.530Z,24.9
2018-09-25T02:08:16.893Z,24.9
2018-09-25T02:09:06.923Z,24.9
2018-09-25T02:09:56.959Z,24.9
2018-09-25T02:10:47.001Z,24.9
2018-09-25T02:11:37.092Z,24.9
2018-09-25T02:12:26.616Z,24.9
2018-09-25T02:13:17.464Z,24.9
2018-09-25T02:14:07.821Z,24.9
2018-09-25T02:14:57.323Z,24.9
2018-09-25T02:15:47.391Z,24.9
2018-09-25T02:16:37.496Z,24.9
2018-09-25T02:17:27.537Z,24.9
2018-09-25T02:18:17.383Z,24.9
2018-09-25T02:19:08.203Z,24.9
2018-09-25T02:19:57.416Z,24.9
2018-09-25T02:20:47.751Z,24.9
2018-09-25T02:21:37.826Z,24.9
2018-09-25T02:22:28.201Z,24.9
2018-09-25T02:23:18.536Z,24.9
2018-09-25T02:24:08.228Z,24.9
2018-09-25T02:24:58.354Z,24.9
2018-09-25T02:25:48.211Z,24.9
2018-09-25T02:26:37.110Z,24.9
2018-09-25T02:27:27.500Z,24.9
2018-09-25T02:28:17.235Z,24.9
2018-09-25T02:29:08.492Z,24.9
2018-09-25T02:29:57.059Z,24.9
2018-09-25T02:30:47.395Z,24.9
2018-09-25T02:31:37.465Z,24.9
2018-09-25T02:32:28.105Z,24.9
2018-09-25T02:33:18.231Z,24.9
2018-09-25T02:34:07.175Z,24.9
2018-09-25T02:34:58.842Z,24.9
2018-09-25T02:35:48.919Z,24.9
2018-09-25T02:36:39.217Z,24.9
2018-09-25T02:37:29.045Z,24.9
2018-09-25T02:38:19.103Z,24.9
2018-09-25T02:39:09.207Z,24.9
2018-09-25T02:39:59.278Z,25
2018-09-25T02:40:49.572Z,24.9
2018-09-25T02:41:39.374Z,24.9
2018-09-25T02:42:28.516Z,24.9
2018-09-25T02:43:19.461Z,24.9
2018-09-25T02:44:10.124Z,24.9
2018-09-25T02:44:59.595Z,24.9
2018-09-25T02:45:49.114Z,24.9
2018-09-25T02:46:39.945Z,24.9
2018-09-25T02:47:29.773Z,24.9
2018-09-25T02:48:19.852Z,25
2018-09-25T02:49:09.884Z,24.9
2018-09-25T02:49:59.949Z,25
2018-09-25T02:50:50.044Z,24.9
2018-09-25T02:51:40.088Z,24.9
2018-09-25T02:52:30.156Z,24.9
2018-09-25T02:53:20.505Z,24.9
2018-09-25T02:54:10.256Z,24.9
2018-09-25T02:54:59.789Z,25
2018-09-25T02:55:50.416Z,24.9
2018-09-25T02:56:40.761Z,24.9
2018-09-25T02:57:30.496Z,25
2018-09-25T02:58:20.883Z,24.9
2018-09-25T02:59:10.378Z,24.9
2018-09-25T03:00:00.443Z,25
2018-09-25T03:00:51.082Z,25
2018-09-25T03:01:40.480Z,25
2018-09-25T03:02:30.721Z,25
2018-09-25T03:03:21.191Z,25
2018-09-25T03:04:11.010Z,24.9
2018-09-25T03:05:01.234Z,24.9
2018-09-25T03:05:51.223Z,25
2018-09-25T03:06:41.402Z,25
2018-09-25T03:07:31.610Z,24.9
2018-09-25T03:08:21.625Z,24.9
2018-09-25T03:09:11.707Z,24.9
2018-09-25T03:10:01.488Z,24.9
2018-09-25T03:10:51.552Z,25
2018-09-25T03:11:41.893Z,25
2018-09-25T03:12:32.209Z,24.9
2018-09-25T03:13:21.697Z,25
2018-09-25T03:14:11.800Z,24.9
2018-09-25T03:15:02.148Z,25
2018-09-25T03:15:51.900Z,25
2018-09-25T03:16:41.985Z,25
2018-09-25T03:17:32.042Z,24.9
2018-09-25T03:18:22.145Z,25
2018-09-25T03:19:12.615Z,25
2018-09-25T03:20:02.450Z,24.9
2018-09-25T03:20:51.724Z,25
2018-09-25T03:21:42.362Z,25
2018-09-25T03:22:32.450Z,25
2018-09-25T03:23:21.927Z,24.9
2018-09-25T03:24:12.289Z,24.9
2018-09-25T03:25:02.964Z,25
2018-09-25T03:25:52.692Z,25
2018-09-25T03:26:42.707Z,25
2018-09-25T03:27:32.777Z,25
2018-09-25T03:28:22.574Z,25
2018-09-25T03:29:12.895Z,25
2018-09-25T03:30:03.241Z,25
2018-09-25T03:30:52.737Z,25
2018-09-25T03:31:43.210Z,25
2018-09-25T03:32:33.536Z,25
2018-09-25T03:33:22.918Z,25
2018-09-25T03:34:13.243Z,25
2018-09-25T03:35:02.762Z,25
2018-09-25T03:35:53.682Z,25
2018-09-25T03:36:43.481Z,25
2018-09-25T03:37:33.566Z,25
2018-09-25T03:38:23.592Z,25
2018-09-25T03:39:13.729Z,25
2018-09-25T03:40:03.529Z,25
2018-09-25T03:40:54.116Z,25
2018-09-25T03:41:44.055Z,25
2018-09-25T03:42:33.886Z,25
2018-09-25T03:43:23.645Z,25
2018-09-25T03:44:13.731Z,25
2018-09-25T03:45:04.372Z,25
2018-09-25T03:45:54.238Z,25
2018-09-25T03:46:44.728Z,25
2018-09-25T03:47:33.960Z,25
2018-09-25T03:48:23.746Z,25
2018-09-25T03:49:14.135Z,25
2018-09-25T05:24:33.270Z,25.1
2018-09-25T05:25:22.952Z,25.1
2018-09-25T05:26:13.073Z,25
2018-09-25T05:27:02.871Z,25
2018-09-25T05:27:52.592Z,24.9
2018-09-25T05:28:43.227Z,24.9
2018-09-25T05:29:33.088Z,24.9
2018-09-25T05:30:22.962Z,24.9
2018-09-25T05:31:12.893Z,24.8
2018-09-25T05:32:02.984Z,24.8
2018-09-25T05:32:53.019Z,24.8
2018-09-25T05:33:42.797Z,24.8
2018-09-25T05:34:33.176Z,24.8
2018-09-25T05:35:23.472Z,24.8
2018-09-25T05:36:13.194Z,24.7
2018-09-25T05:37:03.582Z,24.7
2018-09-25T05:37:53.623Z,24.7
2018-09-25T05:38:43.957Z,24.7
2018-09-25T05:39:33.771Z,24.7
2018-09-25T05:40:23.795Z,24.7
2018-09-25T05:41:14.173Z,24.7
2018-09-25T05:42:04.137Z,24.7
2018-09-25T05:42:54.272Z,24.6
2018-09-25T05:43:44.024Z,24.6
2018-09-25T05:44:34.094Z,24.6
2018-09-25T05:45:23.877Z,24.6
2018-09-25T05:46:14.228Z,24.6
2018-09-25T05:47:04.291Z,24.6
2018-09-25T05:47:54.536Z,24.6
2018-09-25T05:48:45.118Z,24.6
2018-09-25T05:49:34.060Z,24.6
2018-09-25T05:50:24.948Z,24.6
2018-09-25T05:51:14.922Z,24.6
2018-09-25T05:52:04.777Z,24.6
2018-09-25T05:52:54.823Z,24.6
2018-09-25T05:53:45.530Z,24.6
2018-09-25T05:54:35.170Z,25.3
2018-09-25T05:55:24.783Z,32.3
2018-09-25T05:56:15.046Z,32
2018-09-25T05:57:05.326Z,34.8
2018-09-25T05:57:55.381Z,36.5
2018-09-25T05:58:45.451Z,36.1
2018-09-25T05:59:35.243Z,34.4
2018-09-25T06:00:25.586Z,32.9
2018-09-25T06:01:15.966Z,32
2018-09-25T06:02:05.715Z,31.5
2018-09-25T06:02:55.473Z,31.1
2018-09-25T06:03:45.231Z,30.8
2018-09-25T06:04:35.623Z,30.6
2018-09-25T06:05:26.190Z,30.4
2018-09-25T06:06:16.088Z,30.2
2018-09-25T06:07:06.066Z,30
2018-09-25T06:07:55.580Z,29.9
2018-09-25T06:08:46.186Z,29.7
2018-09-25T06:09:36.609Z,29.6
2018-09-25T06:10:26.046Z,29.4
2018-09-25T06:11:16.622Z,29.4
2018-09-25T06:12:06.140Z,29.3
2018-09-25T06:12:56.017Z,29.2
2018-09-25T06:13:46.254Z,29.1
2018-09-25T06:14:35.913Z,31.4
2018-09-25T06:15:26.215Z,34.8
2018-09-25T06:16:16.270Z,35.8
2018-09-25T06:17:05.747Z,38
2018-09-25T06:17:56.103Z,39.1
2018-09-25T06:18:46.919Z,39.1
2018-09-25T06:19:36.527Z,38.6
2018-09-25T06:20:26.815Z,38.4
2018-09-25T06:21:17.152Z,38.5
2018-09-25T06:22:06.901Z,38.8
2018-09-25T06:22:57.402Z,39.1
2018-09-25T06:23:47.070Z,39.4
2018-09-25T06:24:37.092Z,39.6
2018-09-25T06:25:27.151Z,39.8
2018-09-25T06:26:17.815Z,39.9
2018-09-25T06:27:07.591Z,40
2018-09-25T06:27:57.093Z,40.1
2018-09-25T06:28:48.612Z,40.1
2018-09-25T06:29:37.546Z,40.2
2018-09-25T06:30:27.807Z,40.4
2018-09-25T06:31:18.417Z,40.6
2018-09-25T06:32:07.479Z,40.8
2018-09-25T06:32:58.016Z,40.9
2018-09-25T06:33:48.119Z,41
2018-09-25T06:34:38.825Z,41.1
2018-09-25T06:35:27.614Z,41.3
2018-09-25T06:36:18.397Z,41.3
2018-09-25T06:37:08.259Z,41.5
2018-09-25T06:37:57.836Z,41.7
2018-09-25T06:38:48.368Z,41.8
2018-09-25T06:39:38.245Z,41.9
2018-09-25T06:40:28.356Z,42.1
2018-09-25T06:41:18.641Z,42.1
2018-09-25T06:42:08.399Z,42.1
2018-09-25T06:42:58.748Z,42.2
2018-09-25T06:43:48.216Z,42.3
2018-09-25T06:44:38.561Z,42.4
2018-09-25T06:45:28.938Z,42.5
2018-09-25T06:46:19.697Z,42.6
2018-09-25T06:47:09.428Z,42.6
2018-09-25T06:47:58.839Z,42.8
2018-09-25T06:48:49.476Z,42.8
2018-09-25T06:49:39.233Z,42.9
2018-09-25T06:50:29.017Z,43.1
2018-09-25T06:51:19.053Z,43.3
2018-09-25T06:52:09.471Z,43.4
2018-09-25T06:52:59.460Z,43.5
2018-09-25T06:53:49.247Z,43.6
2018-09-25T06:54:39.661Z,43.7
2018-09-25T06:55:29.393Z,43.8
2018-09-25T06:56:18.859Z,43.9
2018-09-25T06:57:09.868Z,44.1
2018-09-25T06:57:58.790Z,44.2
2018-09-25T06:58:49.965Z,44.4
2018-09-25T06:59:39.975Z,44.5
2018-09-25T07:00:30.078Z,44.7
2018-09-25T07:01:20.144Z,44.8
2018-09-25T07:02:10.481Z,44.9
2018-09-25T07:03:00.272Z,45
2018-09-25T07:03:50.297Z,45.1
2018-09-25T07:04:40.057Z,45.3
2018-09-25T07:05:30.472Z,45.4
2018-09-25T07:06:20.226Z,45.6
2018-09-25T07:07:10.549Z,45.8
2018-09-25T07:08:00.323Z,45.9
2018-09-25T07:08:50.671Z,46
2018-09-25T07:09:41.730Z,46
2018-09-25T07:10:33.584Z,46
2018-09-25T07:11:20.900Z,46
2018-09-25T07:12:11.216Z,46.1
2018-09-25T07:13:00.424Z,46.3
2018-09-25T07:13:50.461Z,46.4
2018-09-25T07:14:40.276Z,46.7
2018-09-25T07:15:31.148Z,46.9
2018-09-25T07:16:20.376Z,47
2018-09-25T07:17:11.646Z,47.2
2018-09-25T07:18:02.113Z,47.3
2018-09-25T07:18:51.404Z,47.4
2018-09-25T07:19:40.983Z,47.6
2018-09-25T07:20:31.551Z,47.8
2018-09-25T07:21:21.581Z,47.9
2018-09-25T07:22:11.441Z,48
2018-09-25T07:23:01.921Z,48.1
2018-09-25T07:23:51.463Z,48.3
2018-09-25T07:24:43.113Z,48.4
2018-09-25T07:25:31.918Z,48.6
2018-09-25T07:26:21.112Z,48.7
2018-09-25T07:27:11.988Z,48.8
2018-09-25T07:28:02.091Z,48.9
2018-09-25T07:28:52.129Z,48.9
2018-09-25T07:29:42.215Z,49
2018-09-25T07:30:32.249Z,49.1
2018-09-25T07:31:22.322Z,49.3
2018-09-25T07:32:11.540Z,49.4
2018-09-25T07:33:02.732Z,49.6
2018-09-25T07:33:51.706Z,49.7
2018-09-25T07:34:42.624Z,49.8
2018-09-25T07:35:32.720Z,49.8
2018-09-25T07:36:22.710Z,49.9
2018-09-25T07:37:12.809Z,50
2018-09-25T07:38:02.513Z,50.1
2018-09-25T07:38:52.382Z,50.1
2018-09-25T07:39:41.881Z,50.2
2018-09-25T07:40:31.775Z,50.3
2018-09-25T07:41:21.662Z,50.4
2018-09-25T07:42:11.457Z,50.7
2018-09-25T07:43:01.836Z,50.9
2018-09-25T07:43:52.467Z,51.1
2018-09-25T07:44:42.613Z,51.2
2018-09-25T07:45:32.146Z,51.3
2018-09-25T07:46:22.954Z,51.4
2018-09-25T07:47:11.248Z,51.6
2018-09-25T07:48:03.294Z,51.8
2018-09-25T07:48:53.651Z,51.9
2018-09-25T07:49:43.445Z,52
2018-09-25T07:50:33.522Z,52.1
2018-09-25T07:51:23.547Z,52.3
2018-09-25T07:52:14.167Z,52.4
2018-09-25T07:53:04.309Z,52.6
2018-09-25T07:53:54.714Z,52.8
2018-09-25T07:54:44.504Z,52.9
2018-09-25T07:55:35.333Z,53
2018-09-25T07:56:24.569Z,53.1
2018-09-25T07:57:14.481Z,53.3
2018-09-25T07:58:04.618Z,53.4
2018-09-25T07:58:53.324Z,53.6
2018-09-25T07:59:43.879Z,53.6
2018-09-25T08:00:34.219Z,53.8
2018-09-25T08:01:24.581Z,53.9
2018-09-25T08:02:14.373Z,54.1
2018-09-25T08:03:04.879Z,54.2
2018-09-25T08:03:54.848Z,54.3
2018-09-25T08:04:43.992Z,54.4
2018-09-25T08:05:34.888Z,54.6
2018-09-25T08:06:24.642Z,54.7
2018-09-25T08:07:14.448Z,54.8
2018-09-25T08:08:04.832Z,54.9
2018-09-25T08:08:54.999Z,55
2018-09-25T08:09:44.432Z,55.1
2018-09-25T08:10:35.463Z,55.2
2018-09-25T08:11:25.071Z,55.3
2018-09-25T08:12:14.707Z,55.4
2018-09-25T08:13:04.135Z,55.4
2018-09-25T08:13:54.261Z,55.6
2018-09-25T08:14:45.202Z,55.8
2018-09-25T08:15:35.943Z,55.9
2018-09-25T08:16:25.225Z,56.1
2018-09-25T08:17:15.520Z,56.1
2018-09-25T08:18:05.560Z,56.3
2018-09-25T08:18:54.886Z,56.3
2018-09-25T08:19:45.982Z,56.4
2018-09-25T08:20:35.235Z,56.6
2018-09-25T08:21:25.269Z,56.6
2018-09-25T08:22:15.865Z,56.8
2018-09-25T08:23:06.205Z,56.9
2018-09-25T08:23:55.741Z,57
2018-09-25T08:24:45.847Z,57.1
2018-09-25T08:25:36.134Z,57.3
2018-09-25T08:26:26.422Z,57.4
2018-09-25T08:27:16.511Z,57.5
2018-09-25T08:28:06.090Z,57.6
2018-09-25T08:28:56.376Z,57.7
2018-09-25T08:29:47.481Z,57.8
2018-09-25T08:30:36.822Z,57.9
2018-09-25T08:31:26.560Z,58
2018-09-25T08:32:16.191Z,58.1
2018-09-25T08:33:06.424Z,58.3
2018-09-25T08:33:57.024Z,58.3
2018-09-25T08:34:47.339Z,58.4
2018-09-25T08:35:37.144Z,58.5
2018-09-25T08:37:17.316Z,58.7
2018-09-25T08:38:07.059Z,58.8
2018-09-25T08:38:58.077Z,58.8
2018-09-25T08:40:37.587Z,58.5
2018-09-25T08:41:27.593Z,58.4
2018-09-25T08:42:17.645Z,58.5
2018-09-25T08:43:57.814Z,58.7
2018-09-25T08:44:47.821Z,58.8
2018-09-25T08:45:37.744Z,58.9
2018-09-25T08:46:27.653Z,59
2018-09-25T08:47:17.183Z,59.1
2018-09-25T08:48:07.306Z,59.1
2018-09-25T08:48:58.193Z,59.2
2018-09-25T08:49:48.185Z,59.3
2018-09-25T08:50:38.243Z,59.4
2018-09-25T08:51:28.329Z,59.6
2018-09-25T08:52:18.348Z,59.6
2018-09-25T08:53:08.036Z,59.8
2018-09-25T08:53:58.576Z,59.8
2018-09-25T08:54:48.303Z,59.9
2018-09-25T08:55:38.372Z,59.9
2018-09-25T08:56:28.738Z,60.1
2018-09-25T08:57:18.478Z,60.2
2018-09-25T08:58:08.808Z,60.2
2018-09-25T08:58:58.905Z,60.4
2018-09-25T08:59:48.702Z,60.4
2018-09-25T09:00:39.033Z,60.6
2018-09-25T09:01:29.085Z,60.6
2018-09-25T09:02:19.156Z,60.8
2018-09-25T09:03:09.192Z,60.8
2018-09-25T09:03:58.788Z,60.9
2018-09-25T09:04:48.849Z,60.9
2018-09-25T09:05:39.390Z,61
2018-09-25T09:06:29.719Z,61.1
2018-09-25T09:07:19.243Z,61.1
2018-09-25T09:08:09.445Z,61.3
2018-09-25T09:08:59.669Z,61.4
2018-09-25T09:09:49.674Z,61.4
2018-09-25T09:10:39.772Z,61.5
2018-09-25T09:11:29.302Z,61.6
2018-09-25T09:12:19.901Z,61.6
2018-09-25T09:13:09.961Z,61.8
2018-09-25T09:13:59.754Z,61.6
2018-09-25T09:14:50.069Z,61.6
2018-09-25T09:15:39.827Z,61.7
2018-09-25T09:16:29.915Z,61.7
2018-09-25T09:17:19.721Z,61.9
2018-09-25T09:18:10.085Z,61.9
2018-09-25T09:19:00.387Z,61.9
2018-09-25T09:19:51.579Z,62
2018-09-25T09:20:39.923Z,62.1
2018-09-25T09:21:30.069Z,62.2
2018-09-25T09:22:20.356Z,62.3
2018-09-25T09:39:11.987Z,63.9
2018-09-25T09:40:02.216Z,64.1
2018-09-25T09:40:51.817Z,64.1
2018-09-25T09:41:47.089Z,64.2
2018-09-25T09:42:32.056Z,64.3
2018-09-25T09:43:22.093Z,64.3
2018-09-25T09:44:11.892Z,64.4
2018-09-25T09:45:02.217Z,64.4
2018-09-25T09:45:52.311Z,64.6
2018-09-25T09:46:42.367Z,64.6
2018-09-25T09:47:32.105Z,64.7
2018-09-25T09:48:22.462Z,64.8
2018-09-25T09:49:12.526Z,64.8
2018-09-25T09:50:02.914Z,64.9
2018-09-25T09:50:52.347Z,65
2018-09-25T09:51:42.431Z,65.1
2018-09-25T09:52:32.309Z,65.1
2018-09-25T09:53:22.533Z,65.3
2018-09-25T09:54:12.303Z,65.3
2018-09-25T09:55:02.985Z,65.4
2018-09-25T09:55:52.452Z,65.4
2018-09-25T09:56:43.094Z,65.5
2018-09-25T09:57:32.874Z,65.6
2018-09-25T09:58:22.609Z,65.6
2018-09-25T09:59:13.279Z,65.7
2018-09-25T10:00:03.380Z,65.8
2018-09-25T10:00:53.366Z,65.9
2018-09-25T10:01:42.894Z,65.8
2018-09-25T10:02:33.558Z,65.9
2018-09-25T10:03:23.286Z,65.9
2018-09-25T10:04:13.453Z,66.1
2018-09-25T10:05:03.439Z,66.1
2018-09-25T10:05:54.188Z,66.3
2018-09-25T10:06:44.515Z,66.3
2018-09-25T10:07:33.623Z,66.4
2018-09-25T10:08:23.963Z,66.5
2018-09-25T10:09:14.070Z,66.6
2018-09-25T10:10:03.787Z,66.6
2018-09-25T10:10:53.607Z,66.6
2018-09-25T10:11:43.636Z,66.8
2018-09-25T10:12:35.197Z,66.3
2018-09-25T10:13:23.795Z,65.1
2018-09-25T10:14:13.647Z,64.3
2018-09-25T10:15:03.984Z,64.2
2018-09-25T10:15:54.004Z,64.4
2018-09-25T10:16:43.792Z,64.6
2018-09-25T10:17:33.623Z,64.8
2018-09-25T10:18:23.854Z,64.9
2018-09-25T10:19:14.762Z,65
2018-09-25T10:20:04.283Z,65.1
2018-09-25T10:20:54.418Z,65.2
2018-09-25T10:21:44.742Z,65.3
2018-09-25T10:22:34.520Z,65.4
2018-09-25T10:23:24.362Z,65.6
2018-09-25T10:24:14.380Z,65.8
2018-09-25T10:25:04.483Z,65.9
2018-09-25T10:25:54.833Z,66.1
2018-09-25T10:26:44.916Z,66.3
2018-09-25T10:27:35.103Z,66.4
2018-09-25T10:28:24.688Z,66.5
2018-09-25T10:29:14.758Z,66.6
2018-09-25T10:30:05.098Z,66.8
2018-09-25T10:30:54.310Z,66.9
2018-09-25T10:31:45.241Z,67
2018-09-25T10:32:35.293Z,67.1
2018-09-25T10:33:25.112Z,67.3
2018-09-25T10:34:16.041Z,67.3
2018-09-25T10:35:05.495Z,67.4
2018-09-25T10:35:55.088Z,67.6
2018-09-25T10:36:45.602Z,67.6
2018-09-25T10:37:35.420Z,67.7
2018-09-25T10:38:25.745Z,67.8
2018-09-25T10:39:15.767Z,67.9
2018-09-25T10:40:05.390Z,67.9
2018-09-25T10:40:56.692Z,68.1
2018-09-25T10:41:45.960Z,68.2
2018-09-25T10:42:36.364Z,68.3
2018-09-25T10:43:25.810Z,68.4
2018-09-25T10:44:15.705Z,68.3
2018-09-25T10:45:06.217Z,68.2
2018-09-25T10:45:56.885Z,68.1
2018-09-25T10:46:46.550Z,68.1
2018-09-25T10:47:35.914Z,68.3
2018-09-25T10:48:26.674Z,68.4
2018-09-25T10:49:16.609Z,68.7
2018-09-25T10:50:06.885Z,68.8
2018-09-25T10:50:56.567Z,68.9
2018-09-25T10:51:46.959Z,68.9
2018-09-25T10:52:37.013Z,68.7
2018-09-25T10:53:27.047Z,68.3
2018-09-25T10:54:17.396Z,67.9
2018-09-25T10:55:06.946Z,67.5
2018-09-25T10:55:59.498Z,67.3
2018-09-25T10:56:47.085Z,67.2
2018-09-25T10:57:37.701Z,67.3
2018-09-25T10:58:28.199Z,67.6
2018-09-25T10:59:17.605Z,68.1
2018-09-25T11:00:07.531Z,68.4
2018-09-25T11:00:57.897Z,68.6
2018-09-25T11:01:47.707Z,68.8
2018-09-25T11:02:37.480Z,68.8
2018-09-25T11:03:27.915Z,68.8
2018-09-25T11:04:17.872Z,68.6
2018-09-25T11:05:08.487Z,68.1
2018-09-25T11:05:57.799Z,67.7
2018-09-25T11:06:48.699Z,67.4
2018-09-25T11:07:38.423Z,67.1
2018-09-25T11:08:28.431Z,67.1
2018-09-25T11:09:17.970Z,67.2
2018-09-25T11:10:10.194Z,67.5
2018-09-25T11:10:57.904Z,67.9
2018-09-25T11:11:48.687Z,68.2
2018-09-25T11:12:37.978Z,68.4
2018-09-25T11:13:28.552Z,68.6
2018-09-25T11:14:18.064Z,68.6
2018-09-25T11:15:08.668Z,68.8
2018-09-25T11:15:58.985Z,68.9
2018-09-25T11:16:49.436Z,68.9
2018-09-25T11:17:38.672Z,69.1
2018-09-25T11:18:29.286Z,69.1
2018-09-25T11:19:19.310Z,69.3
2018-09-25T11:20:09.421Z,69.3
2018-09-25T11:20:59.166Z,69.4
2018-09-25T11:21:49.472Z,69.4
2018-09-25T11:22:39.201Z,69.5
2018-09-25T11:23:29.558Z,69.6
2018-09-25T11:24:19.351Z,69.6
2018-09-25T11:25:09.763Z,69.6
2018-09-25T11:25:59.501Z,69.7
2018-09-25T11:26:49.556Z,69.8
2018-09-25T11:27:39.900Z,69.8
2018-09-25T11:28:30.037Z,69.8
2018-09-25T11:29:19.447Z,69.9
2018-09-25T11:30:09.248Z,69.9
2018-09-25T11:31:00.433Z,69.9
2018-09-25T11:31:50.187Z,70.1
2018-09-25T11:32:39.226Z,70.1
2018-09-25T11:33:30.098Z,70.1
2018-09-25T11:34:20.405Z,70.2
2018-09-25T11:35:10.959Z,70.2
2018-09-25T11:36:00.265Z,70.3
2018-09-25T11:36:50.590Z,70.3
2018-09-25T11:37:40.601Z,70.3
2018-09-25T11:38:30.732Z,70.4
2018-09-25T11:39:21.110Z,70.4
2018-09-25T11:40:10.394Z,70.4
2018-09-25T11:41:01.723Z,70.4
2018-09-25T11:41:51.059Z,70.4
2018-09-25T11:42:41.347Z,70.5
2018-09-25T11:43:31.117Z,70.5
2018-09-25T11:44:21.449Z,70.6
2018-09-25T11:45:11.219Z,70.6
2018-09-25T11:46:01.137Z,70.6
2018-09-25T11:46:51.978Z,70.5
2018-09-25T11:47:41.417Z,70.5
2018-09-25T11:48:30.619Z,70.4
2018-09-25T11:49:21.241Z,70.4
2018-09-25T11:50:11.351Z,70.4
2018-09-25T11:51:01.632Z,70.5
2018-09-25T11:51:51.427Z,70.6
2018-09-25T11:52:42.162Z,70.8
2018-09-25T11:53:32.121Z,70.9
2018-09-25T11:54:21.631Z,71.1
2018-09-25T11:55:11.700Z,71.1
2018-09-25T11:56:01.181Z,70.9
2018-09-25T11:56:51.559Z,70.8
2018-09-25T11:57:41.158Z,70.7
2018-09-25T11:58:33.320Z,70.5
2018-09-25T11:59:22.006Z,70.4
2018-09-25T12:00:12.436Z,70.3
2018-09-25T12:01:02.188Z,70.2
2018-09-25T12:01:51.951Z,70.3
2018-09-25T12:02:42.583Z,70.4
2018-09-25T12:03:32.710Z,70.3
2018-09-25T12:04:21.832Z,70.1
2018-09-25T12:05:12.160Z,69.8
2018-09-25T12:06:01.927Z,69.5
2018-09-25T12:06:52.327Z,69.3
2018-09-25T12:07:42.939Z,69.3
2018-09-25T12:08:32.406Z,69.4
2018-09-25T12:09:22.018Z,69.6
2018-09-25T12:10:11.325Z,69.7
2018-09-25T12:11:02.007Z,69.4
2018-09-25T12:11:51.890Z,69.1
2018-09-25T12:12:41.985Z,68.8
2018-09-25T12:13:32.637Z,68.6
2018-09-25T12:14:21.983Z,68.5
2018-09-25T12:15:12.053Z,68.4
2018-09-25T12:16:01.842Z,68.4
2018-09-25T12:16:53.594Z,68.4
2018-09-25T12:17:43.640Z,68.7
2018-09-25T12:18:33.172Z,69
2018-09-25T12:19:22.726Z,69.3
2018-09-25T12:20:13.003Z,69.4
2018-09-25T12:21:03.346Z,69.4
2018-09-25T12:21:53.394Z,69.2
2018-09-25T12:22:43.794Z,68.9
2018-09-25T12:23:34.981Z,68.7
2018-09-25T12:24:24.678Z,68.4
2018-09-25T12:25:13.915Z,68.2
2018-09-25T12:26:04.246Z,67.9
2018-09-25T12:26:53.778Z,67.8
2018-09-25T12:27:43.842Z,67.6
2018-09-25T12:28:34.181Z,67.4
2018-09-25T12:29:23.966Z,66.6
2018-09-25T12:30:14.331Z,65
2018-09-25T12:31:04.681Z,63.5
2018-09-25T12:31:54.141Z,62.1
2018-09-25T12:32:47.022Z,61.1
2018-09-25T12:33:34.280Z,60.1
2018-09-25T12:34:24.623Z,59.4
2018-09-25T12:36:04.755Z,57.9
2018-09-25T12:36:55.095Z,62.1
2018-09-25T12:37:45.415Z,64.7
2018-09-25T12:38:35.010Z,63.9
2018-09-25T12:39:25.240Z,62.1
2018-09-25T12:40:15.350Z,60.7
2018-09-25T12:41:06.040Z,59.6
2018-09-25T12:41:55.160Z,58.7
2018-09-25T12:42:45.512Z,57.9
2018-09-25T12:43:35.487Z,57.2
2018-09-25T12:44:25.367Z,56.6
2018-09-25T12:45:14.840Z,56
2018-09-25T12:46:05.777Z,57.6
2018-09-25T12:46:55.842Z,63
2018-09-25T12:47:45.317Z,63.9
2018-09-25T12:48:35.650Z,65.5
2018-09-25T12:49:25.165Z,66.3
2018-09-25T12:50:16.060Z,66.5
2018-09-25T12:51:05.285Z,66.4
2018-09-25T12:51:55.630Z,66.3
2018-09-25T12:52:46.547Z,66.4
2018-09-25T12:53:36.340Z,66.6
2018-09-25T12:54:26.402Z,66.8
2018-09-25T12:55:16.406Z,66.9
2018-09-25T12:56:06.209Z,67.1
2018-09-25T12:56:56.075Z,66.9
2018-09-25T12:57:46.891Z,66.9
2018-09-25T12:58:36.709Z,66.6
2018-09-25T12:59:26.486Z,66.3
2018-09-25T13:00:16.282Z,66.2
2018-09-25T13:01:06.577Z,66.2
2018-09-25T13:01:56.666Z,66.3
2018-09-25T13:02:46.743Z,66.5
2018-09-25T13:03:37.126Z,66.6
2018-09-25T13:04:27.167Z,66.7
2018-09-25T13:05:16.950Z,66.7
2018-09-25T13:06:07.587Z,66.7
2018-09-25T13:06:57.033Z,66.7
2018-09-25T13:07:47.121Z,66.7
2018-09-25T13:08:37.469Z,66.8
2018-09-25T13:09:27.529Z,66.8
2018-09-25T13:10:17.609Z,66.8
2018-09-25T13:11:07.686Z,66.8
2018-09-25T13:11:57.133Z,66.8
2018-09-25T13:12:46.931Z,66.8
2018-09-25T13:13:37.395Z,66.8
2018-09-25T13:14:27.430Z,66.7
2018-09-25T13:15:17.945Z,66.5
2018-09-25T13:16:09.057Z,66.3
2018-09-25T13:16:57.807Z,66.1
2018-09-25T13:17:48.165Z,65.9
2018-09-25T13:18:38.210Z,65.6
2018-09-25T13:19:27.444Z,65.4
2018-09-25T13:20:17.558Z,65.2
2018-09-25T13:21:08.646Z,64.9
2018-09-25T13:21:57.875Z,64.8
2018-09-25T13:22:48.528Z,64.3
2018-09-25T13:23:38.674Z,63.3
2018-09-25T13:24:28.395Z,61.9
2018-09-25T13:25:18.968Z,60.8
2018-09-25T13:26:08.765Z,59.8
2018-09-25T13:26:58.350Z,59
2018-09-25T13:27:48.895Z,58.3
2018-09-25T13:29:29.040Z,57.3
2018-09-25T13:30:17.955Z,56.8
2018-09-25T13:31:09.143Z,56.3
2018-09-25T13:31:59.461Z,55.9
2018-09-25T13:32:48.972Z,55.5
2018-09-25T13:33:38.775Z,55.1
2018-09-25T13:34:29.127Z,54.8
2018-09-25T13:35:19.797Z,54.4
2018-09-25T13:36:09.222Z,54.2
2018-09-25T13:36:59.556Z,53.9
2018-09-25T13:37:49.380Z,53.6
2018-09-25T13:38:39.706Z,53.4
2018-09-25T13:39:29.724Z,53.1
2018-09-25T13:40:19.855Z,52.9
2018-09-25T13:41:09.952Z,52.7
2018-09-25T13:41:59.889Z,52.4
2018-09-25T13:42:50.024Z,52.3
2018-09-25T13:43:40.082Z,52.1
2018-09-25T13:45:19.672Z,51.8
2018-09-25T13:46:09.706Z,51.6
2018-09-25T13:47:00.594Z,51.4
2018-09-25T13:47:50.629Z,51.3
2018-09-25T13:48:39.609Z,51.1
2018-09-25T13:49:30.562Z,51
2018-09-25T13:50:20.356Z,50.9
2018-09-25T13:51:10.354Z,50.8
2018-09-25T13:52:01.268Z,50.6
2018-09-25T13:52:50.233Z,50.5
2018-09-25T13:53:40.813Z,50.4
2018-09-25T13:54:30.922Z,50.3
2018-09-25T13:55:20.686Z,50.1
2018-09-25T13:56:12.259Z,50
2018-09-25T13:57:01.356Z,49.9
2018-09-25T13:57:51.128Z,49.8
2018-09-25T13:58:40.926Z,49.7
2018-09-25T13:59:30.996Z,49.6
2018-09-25T14:00:21.353Z,49.5
2018-09-25T14:01:11.096Z,49.4
2018-09-25T14:02:01.186Z,49.3
2018-09-25T14:02:51.535Z,49.2